createdAt,value
2018-03-01T00:00:02.743Z,31.90
2018-03-01T00:01:05.254Z,31.80
2018-03-01T00:02:08.518Z,31.80
2018-03-01T00:03:11.029Z,31.80
2018-03-01T00:04:13.534Z,31.90
2018-03-01T00:05:16.080Z,31.90
2018-03-01T00:06:18.718Z,31.90
2018-03-01T00:07:22.118Z,32.00
2018-03-01T00:08:24.622Z,32.00
2018-03-01T00:09:27.122Z,32.10
2018-03-01T00:10:30.406Z,32.20
2018-03-01T00:11:33.682Z,32.10
2018-03-01T00:12:36.966Z,32.10
2018-03-01T00:13:40.238Z,32.10
2018-03-01T00:14:42.746Z,32.10
2018-03-01T00:15:45.306Z,32.10
2018-03-01T00:16:47.818Z,32.10
2018-03-01T00:17:50.318Z,32.10
2018-03-01T00:18:53.594Z,32.10
2018-03-01T00:19:56.870Z,32.60
2018-03-01T00:20:59.406Z,32.00
2018-03-01T00:22:01.906Z,32.10
2018-03-01T00:23:05.178Z,32.70
2018-03-01T00:24:07.691Z,32.20
2018-03-01T00:25:10.198Z,32.20
2018-03-01T00:26:12.824Z,32.20
2018-03-01T00:27:15.330Z,32.30
2018-03-01T00:28:17.842Z,32.40
2018-03-01T00:29:21.110Z,32.40
2018-03-01T00:30:24.390Z,32.50
2018-03-01T00:31:28.012Z,32.40
2018-03-01T00:32:30.517Z,32.40
2018-03-01T00:33:33.042Z,32.30
2018-03-01T00:34:36.506Z,32.30
2018-03-01T00:35:39.777Z,32.20
2018-03-01T00:36:43.078Z,32.30
2018-03-01T00:37:46.346Z,32.00
2018-03-01T00:38:48.855Z,32.00
2018-03-01T00:39:51.358Z,32.00
2018-03-01T00:40:53.858Z,32.00
2018-03-01T00:41:57.170Z,32.10
2018-03-01T00:42:59.702Z,32.10
2018-03-01T00:44:02.981Z,32.10
2018-03-01T00:45:06.978Z,32.20
2018-03-01T00:46:10.242Z,32.20
2018-03-01T00:47:12.766Z,32.20
2018-03-01T00:48:15.270Z,32.20
2018-03-01T00:49:17.774Z,32.20
2018-03-01T00:50:20.291Z,32.20
2018-03-01T00:51:22.837Z,32.70
2018-03-01T00:52:25.338Z,32.10
2018-03-01T00:53:27.931Z,32.00
2018-03-01T00:54:31.199Z,31.90
2018-03-01T00:55:34.502Z,32.00
2018-03-01T00:56:37.022Z,31.90
2018-03-01T00:57:39.566Z,31.80
2018-03-01T00:58:42.066Z,31.80
2018-03-01T00:59:44.598Z,31.80
2018-03-01T01:00:47.124Z,31.70
2018-03-01T01:01:50.414Z,31.60
2018-03-01T01:02:52.947Z,31.60
2018-03-01T01:03:55.466Z,31.70
2018-03-01T01:04:58.010Z,31.70
2018-03-01T01:06:01.287Z,31.90
2018-03-01T01:07:04.569Z,31.80
2018-03-01T01:08:07.850Z,31.70
2018-03-01T01:09:11.122Z,31.70
2018-03-01T01:10:13.703Z,31.70
2018-03-01T01:11:16.965Z,31.70
2018-03-01T01:12:20.244Z,31.60
2018-03-01T01:13:22.778Z,31.60
2018-03-01T01:14:25.278Z,31.70
2018-03-01T01:15:27.779Z,31.70
2018-03-01T01:16:30.341Z,31.70
2018-03-01T01:17:32.918Z,31.80
2018-03-01T01:18:35.438Z,31.80
2018-03-01T01:19:37.949Z,31.80
2018-03-01T01:20:40.461Z,31.80
2018-03-01T01:21:42.980Z,31.80
2018-03-01T01:22:45.498Z,31.70
2018-03-01T01:23:48.099Z,31.60
2018-03-01T01:24:51.362Z,31.50
2018-03-01T01:25:53.891Z,31.50
2018-03-01T01:26:56.394Z,31.50
2018-03-01T01:27:59.678Z,31.60
2018-03-01T01:29:03.018Z,32.10
2018-03-01T01:30:05.526Z,31.60
2018-03-01T01:31:08.032Z,31.60
2018-03-01T01:32:10.561Z,31.60
2018-03-01T01:33:13.877Z,31.60
2018-03-01T01:34:16.418Z,31.50
2018-03-01T01:35:19.686Z,31.50
2018-03-01T01:36:22.206Z,31.50
2018-03-01T01:37:24.722Z,31.60
2018-03-01T01:38:27.234Z,31.60
2018-03-01T01:39:30.017Z,32.00
2018-03-01T01:40:32.534Z,31.60
2018-03-01T01:41:35.807Z,31.70
2018-03-01T01:42:38.400Z,31.70
2018-03-01T01:43:40.935Z,31.80
2018-03-01T01:44:43.463Z,31.80
2018-03-01T01:45:45.962Z,31.90
2018-03-01T01:46:48.502Z,31.90
2018-03-01T01:47:51.006Z,31.90
2018-03-01T01:48:54.278Z,31.90
2018-03-01T01:49:56.854Z,31.90
2018-03-01T01:51:04.333Z,31.90
2018-03-01T01:52:06.838Z,31.90
2018-03-01T01:53:09.342Z,31.90
2018-03-01T01:54:11.856Z,31.80
2018-03-01T01:55:14.398Z,31.80
2018-03-01T01:56:17.684Z,32.20
2018-03-01T01:57:20.958Z,31.70
2018-03-01T01:58:23.466Z,31.70
2018-03-01T01:59:25.971Z,31.70
2018-03-01T02:00:28.495Z,31.60
2018-03-01T02:01:31.003Z,31.50
2018-03-01T02:02:33.542Z,31.60
2018-03-01T02:03:36.053Z,31.40
2018-03-01T02:04:38.554Z,31.40
2018-03-01T02:05:41.102Z,31.40
2018-03-01T02:06:44.366Z,31.40
2018-03-01T02:07:46.878Z,31.40
2018-03-01T02:08:49.378Z,31.70
2018-03-01T02:09:51.910Z,31.60
2018-03-01T02:10:54.442Z,31.60
2018-03-01T02:11:57.715Z,31.60
2018-03-01T02:13:00.223Z,31.60
2018-03-01T02:14:02.732Z,31.60
2018-03-01T02:15:05.238Z,31.60
2018-03-01T02:16:07.775Z,31.70
2018-03-01T02:17:10.278Z,31.70
2018-03-01T02:18:12.778Z,31.80
2018-03-01T02:19:15.282Z,31.80
2018-03-01T02:20:18.557Z,31.80
2018-03-01T02:21:21.850Z,31.80
2018-03-01T02:22:25.122Z,31.80
2018-03-01T02:23:27.622Z,31.80
2018-03-01T02:24:30.126Z,32.20
2018-03-01T02:25:32.628Z,31.70
2018-03-01T02:26:35.942Z,31.70
2018-03-01T02:27:38.441Z,31.70
2018-03-01T02:28:40.942Z,31.70
2018-03-01T02:29:44.216Z,31.50
2018-03-01T02:30:47.479Z,31.80
2018-03-01T02:31:49.998Z,31.50
2018-03-01T02:32:52.512Z,31.60
2018-03-01T02:33:55.051Z,31.60
2018-03-01T02:34:57.567Z,31.60
2018-03-01T02:36:00.854Z,31.70
2018-03-01T02:37:04.144Z,31.60
2018-03-01T02:38:07.414Z,31.60
2018-03-01T02:39:10.688Z,31.60
2018-03-01T02:40:13.199Z,31.60
2018-03-01T02:41:15.715Z,31.60
2018-03-01T02:42:18.251Z,31.60
2018-03-01T02:43:20.746Z,31.60
2018-03-01T02:44:23.266Z,31.60
2018-03-01T02:45:25.763Z,31.60
2018-03-01T02:46:28.278Z,31.70
2018-03-01T02:47:30.810Z,31.80
2018-03-01T02:48:34.090Z,31.90
2018-03-01T02:49:36.614Z,31.80
2018-03-01T02:50:39.132Z,31.80
2018-03-01T02:51:42.395Z,31.50
2018-03-01T02:52:44.938Z,31.80
2018-03-01T02:53:47.438Z,31.70
2018-03-01T02:54:49.946Z,31.70
2018-03-01T02:55:52.461Z,32.10
2018-03-01T02:56:54.974Z,31.40
2018-03-01T02:57:57.530Z,31.40
2018-03-01T02:59:00.028Z,31.50
2018-03-01T03:00:02.532Z,31.50
2018-03-01T03:01:05.807Z,32.20
2018-03-01T03:02:08.310Z,31.60
2018-03-01T03:03:10.834Z,31.70
2018-03-01T03:04:13.334Z,31.70
2018-03-01T03:05:16.602Z,31.80
2018-03-01T03:06:19.877Z,31.80
2018-03-01T03:07:22.390Z,31.80
2018-03-01T03:08:24.910Z,31.90
2018-03-01T03:09:27.417Z,31.80
2018-03-01T03:10:29.940Z,31.80
2018-03-01T03:11:32.457Z,31.90
2018-03-01T03:12:34.958Z,32.20
2018-03-01T03:13:37.509Z,31.70
2018-03-01T03:14:40.014Z,31.60
2018-03-01T03:15:43.284Z,31.60
2018-03-01T03:16:45.800Z,31.60
2018-03-01T03:17:48.302Z,31.80
2018-03-01T03:18:50.835Z,31.80
2018-03-01T03:19:53.347Z,31.90
2018-03-01T03:20:55.858Z,31.90
2018-03-01T03:21:58.378Z,31.90
2018-03-01T03:23:00.975Z,31.90
2018-03-01T03:24:03.498Z,31.90
2018-03-01T03:25:06.002Z,31.90
2018-03-01T03:26:08.518Z,31.90
2018-03-01T03:27:11.027Z,31.90
2018-03-01T03:28:14.292Z,31.80
2018-03-01T03:29:16.830Z,31.80
2018-03-01T03:30:19.331Z,31.90
2018-03-01T03:31:22.606Z,31.90
2018-03-01T03:32:25.874Z,32.10
2018-03-01T03:33:28.398Z,31.90
2018-03-01T03:34:30.939Z,31.90
2018-03-01T03:35:34.201Z,32.00
2018-03-01T03:36:37.485Z,32.00
2018-03-01T03:37:39.997Z,32.00
2018-03-01T03:38:42.511Z,32.00
2018-03-01T03:39:45.030Z,32.00
2018-03-01T03:40:47.530Z,32.00
2018-03-01T03:41:50.036Z,32.00
2018-03-01T03:42:52.550Z,32.00
2018-03-01T03:43:55.060Z,32.00
2018-03-01T03:44:58.354Z,32.00
2018-03-01T03:46:00.859Z,32.00
2018-03-01T03:47:03.358Z,31.90
2018-03-01T03:48:05.955Z,32.00
2018-03-01T03:49:08.465Z,32.00
2018-03-01T03:50:10.983Z,32.00
2018-03-01T03:51:13.500Z,32.00
2018-03-01T03:52:16.006Z,32.00
2018-03-01T03:53:19.277Z,31.90
2018-03-01T03:54:22.550Z,31.90
2018-03-01T03:55:25.850Z,31.90
2018-03-01T03:56:29.128Z,31.90
2018-03-01T03:57:32.402Z,31.90
2018-03-01T03:58:34.918Z,31.90
2018-03-01T03:59:37.443Z,31.90
2018-03-01T04:00:40.764Z,31.90
2018-03-01T04:01:43.263Z,31.90
2018-03-01T04:02:45.766Z,31.90
2018-03-01T04:03:49.038Z,32.00
2018-03-01T04:04:52.308Z,32.00
2018-03-01T04:05:54.859Z,32.00
2018-03-01T04:06:57.362Z,32.00
2018-03-01T04:08:00.636Z,31.90
2018-03-01T04:09:03.915Z,32.00
2018-03-01T04:10:07.198Z,31.90
2018-03-01T04:11:10.487Z,32.00
2018-03-01T04:12:13.002Z,31.80
2018-03-01T04:13:15.513Z,31.70
2018-03-01T04:14:18.782Z,31.80
2018-03-01T04:15:21.295Z,31.80
2018-03-01T04:16:23.824Z,31.80
2018-03-01T04:17:26.319Z,31.90
2018-03-01T04:18:28.901Z,31.90
2018-03-01T04:19:31.434Z,32.00
2018-03-01T04:20:34.722Z,31.90
2018-03-01T04:21:38.014Z,31.90
2018-03-01T04:22:40.577Z,31.90
2018-03-01T04:23:43.078Z,31.90
2018-03-01T04:24:45.585Z,32.00
2018-03-01T04:25:48.088Z,32.00
2018-03-01T04:26:50.952Z,32.10
2018-03-01T04:27:53.459Z,32.20
2018-03-01T04:28:55.961Z,32.10
2018-03-01T04:29:59.230Z,32.00
2018-03-01T04:31:01.737Z,32.00
2018-03-01T04:32:04.494Z,32.00
2018-03-01T04:33:07.779Z,32.00
2018-03-01T04:34:11.065Z,32.00
2018-03-01T04:35:13.578Z,32.00
2018-03-01T04:36:16.083Z,32.00
2018-03-01T04:37:19.362Z,32.10
2018-03-01T04:38:22.628Z,32.20
2018-03-01T04:39:25.176Z,32.20
2018-03-01T04:40:27.678Z,32.30
2018-03-01T04:41:30.947Z,32.40
2018-03-01T04:42:33.471Z,32.20
2018-03-01T04:43:35.993Z,32.30
2018-03-01T04:44:39.270Z,32.30
2018-03-01T04:45:41.781Z,32.20
2018-03-01T04:46:44.293Z,32.40
2018-03-01T04:47:46.826Z,32.40
2018-03-01T04:48:49.339Z,32.30
2018-03-01T04:49:52.616Z,32.40
2018-03-01T04:50:55.894Z,32.40
2018-03-01T04:51:58.488Z,32.40
2018-03-01T04:53:01.016Z,32.40
2018-03-01T04:54:03.525Z,32.30
2018-03-01T04:55:06.040Z,32.20
2018-03-01T04:56:08.558Z,32.10
2018-03-01T04:57:11.058Z,32.20
2018-03-01T04:58:13.603Z,32.20
2018-03-01T04:59:16.112Z,32.10
2018-03-01T05:00:18.620Z,32.10
2018-03-01T05:01:21.129Z,32.10
2018-03-01T05:02:23.639Z,32.20
2018-03-01T05:03:26.172Z,32.10
2018-03-01T05:04:28.706Z,32.00
2018-03-01T05:05:31.216Z,32.00
2018-03-01T05:06:34.489Z,31.80
2018-03-01T05:07:37.770Z,32.60
2018-03-01T05:08:40.363Z,32.10
2018-03-01T05:09:43.646Z,32.10
2018-03-01T05:10:46.927Z,32.20
2018-03-01T05:11:50.197Z,32.20
2018-03-01T05:12:52.702Z,32.20
2018-03-01T05:13:55.231Z,32.30
2018-03-01T05:14:57.834Z,32.30
2018-03-01T05:16:00.346Z,32.20
2018-03-01T05:17:02.854Z,32.20
2018-03-01T05:18:05.414Z,32.30
2018-03-01T05:19:08.002Z,32.30
2018-03-01T05:20:13.839Z,32.40
2018-03-01T05:21:16.350Z,32.30
2018-03-01T05:22:18.851Z,32.40
2018-03-01T05:23:22.118Z,32.20
2018-03-01T05:24:24.658Z,32.20
2018-03-01T05:25:27.155Z,32.20
2018-03-01T05:26:30.440Z,32.10
2018-03-01T05:27:33.748Z,32.10
2018-03-01T05:28:36.311Z,32.00
2018-03-01T05:29:38.870Z,32.10
2018-03-01T05:30:41.374Z,32.10
2018-03-01T05:31:43.891Z,32.10
2018-03-01T05:32:47.163Z,32.20
2018-03-01T05:33:49.671Z,32.10
2018-03-01T05:34:52.194Z,32.20
2018-03-01T05:35:55.637Z,32.90
2018-03-01T05:36:58.162Z,32.40
2018-03-01T05:38:01.431Z,32.40
2018-03-01T05:39:04.702Z,32.50
2018-03-01T05:40:07.234Z,32.50
2018-03-01T05:41:09.734Z,32.40
2018-03-01T05:42:12.331Z,32.40
2018-03-01T05:43:14.834Z,32.40
2018-03-01T05:44:17.338Z,32.30
2018-03-01T05:45:19.866Z,32.20
2018-03-01T05:46:22.394Z,32.20
2018-03-01T05:47:24.886Z,32.20
2018-03-01T05:48:27.379Z,32.20
2018-03-01T05:49:29.880Z,32.10
2018-03-01T05:50:33.168Z,32.00
2018-03-01T05:51:36.430Z,32.00
2018-03-01T05:52:38.946Z,32.00
2018-03-01T05:53:43.586Z,32.20
2018-03-01T05:54:46.110Z,32.10
2018-03-01T05:55:48.650Z,32.20
2018-03-01T05:56:51.926Z,32.20
2018-03-01T05:57:54.458Z,32.20
2018-03-01T05:58:56.962Z,32.10
2018-03-01T06:00:00.239Z,32.50
2018-03-01T06:01:02.772Z,32.20
2018-03-01T06:02:05.281Z,32.20
2018-03-01T06:03:08.552Z,32.00
2018-03-01T06:04:11.068Z,32.00
2018-03-01T06:05:13.570Z,32.00
2018-03-01T06:06:16.116Z,32.00
2018-03-01T06:07:18.635Z,32.10
2018-03-01T06:08:21.923Z,32.50
2018-03-01T06:09:25.245Z,32.10
2018-03-01T06:10:27.730Z,32.10
2018-03-01T06:11:30.274Z,32.10
2018-03-01T06:12:32.804Z,32.20
2018-03-01T06:13:35.322Z,32.20
2018-03-01T06:14:37.831Z,32.20
2018-03-01T06:15:41.102Z,32.20
2018-03-01T06:16:44.396Z,32.20
2018-03-01T06:17:47.717Z,32.20
2018-03-01T06:18:50.217Z,32.20
2018-03-01T06:19:52.730Z,32.20
2018-03-01T06:20:55.251Z,32.20
2018-03-01T06:21:57.784Z,32.20
2018-03-01T06:23:00.326Z,32.10
2018-03-01T06:24:02.902Z,32.10
2018-03-01T06:25:05.460Z,32.10
2018-03-01T06:26:07.973Z,32.10
2018-03-01T06:27:10.527Z,32.10
2018-03-01T06:28:13.044Z,32.10
2018-03-01T06:29:16.312Z,32.10
2018-03-01T06:30:19.660Z,32.00
2018-03-01T06:31:22.172Z,32.00
2018-03-01T06:32:25.483Z,32.00
2018-03-01T06:33:27.990Z,32.00
2018-03-01T06:34:30.500Z,31.90
2018-03-01T06:35:33.057Z,31.90
2018-03-01T06:36:35.591Z,32.00
2018-03-01T06:37:38.140Z,32.00
2018-03-01T06:38:40.654Z,32.00
2018-03-01T06:39:43.956Z,32.00
2018-03-01T06:40:46.466Z,32.00
2018-03-01T06:41:48.990Z,32.00
2018-03-01T06:42:51.535Z,32.00
2018-03-01T06:43:54.814Z,32.00
2018-03-01T06:44:58.085Z,31.90
2018-03-01T06:46:00.590Z,32.00
2018-03-01T06:47:03.102Z,31.90
2018-03-01T06:48:05.665Z,31.90
2018-03-01T06:49:08.254Z,31.90
2018-03-01T06:50:10.734Z,31.90
2018-03-01T06:51:13.247Z,31.90
2018-03-01T06:52:15.850Z,31.90
2018-03-01T06:53:19.150Z,32.00
2018-03-01T06:54:22.419Z,31.80
2018-03-01T06:55:25.696Z,31.80
2018-03-01T06:56:28.229Z,31.80
2018-03-01T06:57:30.743Z,31.80
2018-03-01T06:58:34.137Z,31.90
2018-03-01T06:59:36.639Z,31.90
2018-03-01T07:00:39.198Z,31.80
2018-03-01T07:01:41.703Z,31.80
2018-03-01T07:02:44.978Z,32.00
2018-03-01T07:03:47.582Z,31.90
2018-03-01T07:04:50.088Z,31.90
2018-03-01T07:05:52.650Z,31.90
2018-03-01T07:06:55.171Z,31.80
2018-03-01T07:07:58.583Z,31.70
2018-03-01T07:09:01.114Z,31.70
2018-03-01T07:10:04.443Z,31.60
2018-03-01T07:11:06.999Z,31.60
2018-03-01T07:12:09.566Z,31.60
2018-03-01T07:13:12.091Z,31.70
2018-03-01T07:14:15.385Z,31.60
2018-03-01T07:15:18.706Z,31.60
2018-03-01T07:16:21.210Z,31.60
2018-03-01T07:17:23.727Z,31.60
2018-03-01T07:18:26.256Z,31.50
2018-03-01T07:19:28.800Z,31.60
2018-03-01T07:20:31.320Z,31.60
2018-03-01T07:21:33.850Z,31.60
2018-03-01T07:22:37.184Z,31.50
2018-03-01T07:23:39.680Z,31.50
2018-03-01T07:24:42.223Z,31.50
2018-03-01T07:25:44.738Z,31.40
2018-03-01T07:26:48.137Z,31.30
2018-03-01T07:27:51.460Z,31.20
2018-03-01T07:28:56.244Z,31.10
2018-03-01T07:29:59.856Z,31.10
2018-03-01T07:31:06.873Z,31.10
2018-03-01T07:32:09.383Z,31.10
2018-03-01T07:33:11.894Z,31.10
2018-03-01T07:34:14.403Z,31.10
2018-03-01T07:35:16.923Z,31.20
2018-03-01T07:36:19.542Z,31.20
2018-03-01T07:37:22.066Z,31.20
2018-03-01T07:38:24.580Z,31.30
2018-03-01T07:39:27.094Z,31.30
2018-03-01T07:40:29.915Z,31.10
2018-03-01T07:41:32.426Z,31.10
2018-03-01T07:42:34.952Z,31.10
2018-03-01T07:43:37.454Z,31.00
2018-03-01T07:44:39.963Z,30.90
2018-03-01T07:45:43.265Z,30.70
2018-03-01T07:46:45.774Z,30.70
2018-03-01T07:47:48.287Z,30.80
2018-03-01T07:48:50.798Z,30.80
2018-03-01T07:49:54.223Z,30.80
2018-03-01T07:50:57.509Z,30.90
2018-03-01T07:52:00.795Z,30.80
2018-03-01T07:53:03.381Z,30.80
2018-03-01T07:54:05.893Z,30.90
2018-03-01T07:55:08.423Z,30.80
2018-03-01T07:56:10.951Z,30.70
2018-03-01T07:57:14.290Z,30.70
2018-03-01T07:58:16.806Z,30.70
2018-03-01T07:59:20.075Z,30.80
2018-03-01T08:00:23.388Z,30.80
2018-03-01T08:01:25.940Z,30.80
2018-03-01T08:02:29.211Z,30.40
2018-03-01T08:03:32.475Z,30.30
2018-03-01T08:04:34.985Z,30.30
2018-03-01T08:05:37.482Z,30.30
2018-03-01T08:06:40.011Z,30.30
2018-03-01T08:07:42.571Z,30.30
2018-03-01T08:08:45.843Z,30.40
2018-03-01T08:09:49.114Z,30.30
2018-03-01T08:10:52.413Z,30.10
2018-03-01T08:11:55.725Z,30.10
2018-03-01T08:12:58.230Z,30.00
2018-03-01T08:14:00.737Z,30.10
2018-03-01T08:15:04.008Z,30.10
2018-03-01T08:16:07.290Z,30.10
2018-03-01T08:17:10.898Z,30.20
2018-03-01T08:18:13.398Z,30.20
2018-03-01T08:19:15.912Z,30.10
2018-03-01T08:20:18.418Z,30.10
2018-03-01T08:21:20.918Z,30.10
2018-03-01T08:22:23.625Z,30.10
2018-03-01T08:23:26.891Z,30.00
2018-03-01T08:24:30.169Z,30.00
2018-03-01T08:25:32.670Z,30.00
2018-03-01T08:26:35.184Z,30.00
2018-03-01T08:27:37.715Z,30.10
2018-03-01T08:28:40.215Z,30.00
2018-03-01T08:29:42.722Z,30.00
2018-03-01T08:30:45.246Z,29.90
2018-03-01T08:31:48.539Z,29.90
2018-03-01T08:32:51.066Z,29.80
2018-03-01T08:33:53.568Z,29.80
2018-03-01T08:34:56.066Z,29.90
2018-03-01T08:35:59.362Z,29.90
2018-03-01T08:37:01.875Z,29.90
2018-03-01T08:38:05.943Z,29.70
2018-03-01T08:39:08.483Z,29.70
2018-03-01T08:40:11.751Z,29.60
2018-03-01T08:41:15.031Z,29.70
2018-03-01T08:42:18.302Z,29.70
2018-03-01T08:43:20.824Z,29.70
2018-03-01T08:44:23.365Z,29.70
2018-03-01T08:45:25.918Z,29.60
2018-03-01T08:46:29.195Z,29.50
2018-03-01T08:47:32.491Z,29.40
2018-03-01T08:48:35.801Z,29.40
2018-03-01T08:49:38.350Z,29.40
2018-03-01T08:50:40.855Z,29.30
2018-03-01T08:51:43.367Z,29.30
2018-03-01T08:52:46.646Z,29.20
2018-03-01T08:53:49.974Z,29.60
2018-03-01T08:54:52.494Z,29.20
2018-03-01T08:55:55.775Z,29.10
2018-03-01T08:56:59.042Z,29.10
2018-03-01T08:58:01.546Z,29.10
2018-03-01T08:59:04.087Z,29.20
2018-03-01T09:00:07.375Z,29.40
2018-03-01T09:01:10.665Z,29.20
2018-03-01T09:02:13.941Z,29.00
2018-03-01T09:03:17.206Z,29.10
2018-03-01T09:04:20.015Z,29.00
2018-03-01T09:05:22.519Z,29.00
2018-03-01T09:06:25.026Z,28.90
2018-03-01T09:07:28.318Z,28.90
2018-03-01T09:08:31.615Z,28.90
2018-03-01T09:09:34.162Z,28.90
2018-03-01T09:10:37.445Z,28.80
2018-03-01T09:11:40.707Z,28.80
2018-03-01T09:12:43.208Z,28.70
2018-03-01T09:13:46.483Z,28.70
2018-03-01T09:14:49.792Z,28.70
2018-03-01T09:15:52.303Z,28.70
2018-03-01T09:16:54.847Z,28.60
2018-03-01T09:17:57.359Z,28.90
2018-03-01T09:19:00.642Z,28.40
2018-03-01T09:20:03.959Z,28.40
2018-03-01T09:21:06.461Z,28.40
2018-03-01T09:22:08.976Z,28.50
2018-03-01T09:23:11.483Z,28.50
2018-03-01T09:24:13.991Z,28.40
2018-03-01T09:25:17.306Z,28.30
2018-03-01T09:26:19.810Z,28.30
2018-03-01T09:27:22.426Z,28.30
2018-03-01T09:28:24.938Z,28.30
2018-03-01T09:29:27.447Z,28.30
2018-03-01T09:30:29.993Z,28.30
2018-03-01T09:31:33.284Z,28.20
2018-03-01T09:32:36.573Z,28.30
2018-03-01T09:33:39.846Z,28.20
2018-03-01T09:34:43.115Z,28.20
2018-03-01T09:35:45.641Z,28.20
2018-03-01T09:36:48.186Z,28.20
2018-03-01T09:37:50.689Z,28.20
2018-03-01T09:38:53.195Z,28.20
2018-03-01T09:39:56.470Z,28.60
2018-03-01T09:40:59.279Z,28.20
2018-03-01T09:42:01.782Z,28.20
2018-03-01T09:43:04.283Z,28.20
2018-03-01T09:44:07.557Z,28.30
2018-03-01T09:45:10.836Z,28.30
2018-03-01T09:46:13.354Z,28.30
2018-03-01T09:47:15.901Z,28.30
2018-03-01T09:48:18.407Z,28.10
2018-03-01T09:49:20.947Z,28.10
2018-03-01T09:50:23.457Z,28.10
2018-03-01T09:51:26.286Z,28.20
2018-03-01T09:52:28.864Z,28.50
2018-03-01T09:53:31.362Z,28.00
2018-03-01T09:54:33.879Z,27.90
2018-03-01T09:55:36.398Z,27.90
2018-03-01T09:56:38.926Z,27.80
2018-03-01T09:57:41.434Z,27.70
2018-03-01T09:58:44.714Z,27.70
2018-03-01T09:59:47.247Z,27.50
2018-03-01T10:00:50.079Z,27.90
2018-03-01T10:01:53.362Z,27.40
2018-03-01T10:02:56.622Z,27.30
2018-03-01T10:03:59.122Z,27.30
2018-03-01T10:05:01.710Z,27.30
2018-03-01T10:06:04.238Z,27.20
2018-03-01T10:07:07.533Z,27.20
2018-03-01T10:08:10.046Z,27.20
2018-03-01T10:09:12.538Z,27.10
2018-03-01T10:10:15.798Z,27.10
2018-03-01T10:11:18.301Z,27.10
2018-03-01T10:12:20.834Z,27.10
2018-03-01T10:13:24.395Z,27.20
2018-03-01T10:14:27.874Z,27.10
2018-03-01T10:15:30.396Z,27.10
2018-03-01T10:16:33.682Z,27.10
2018-03-01T10:17:36.978Z,27.20
2018-03-01T10:18:40.256Z,27.20
2018-03-01T10:19:43.531Z,27.20
2018-03-01T10:20:46.809Z,27.10
2018-03-01T10:21:49.310Z,27.50
2018-03-01T10:22:51.829Z,27.00
2018-03-01T10:23:54.339Z,27.00
2018-03-01T10:24:56.863Z,27.00
2018-03-01T10:25:59.411Z,27.00
2018-03-01T10:27:01.939Z,27.00
2018-03-01T10:28:04.872Z,27.10
2018-03-01T10:29:08.179Z,27.30
2018-03-01T10:30:10.755Z,27.30
2018-03-01T10:31:13.266Z,27.20
2018-03-01T10:32:15.773Z,27.20
2018-03-01T10:33:19.078Z,27.00
2018-03-01T10:34:21.631Z,27.00
2018-03-01T10:35:27.292Z,27.00
2018-03-01T10:36:33.272Z,27.00
2018-03-01T10:37:36.334Z,27.00
2018-03-01T10:38:38.946Z,26.90
2018-03-01T10:39:44.929Z,26.80
2018-03-01T10:40:47.981Z,26.90
2018-03-01T10:41:51.291Z,26.90
2018-03-01T10:42:54.952Z,26.80
2018-03-01T10:43:58.368Z,26.80
2018-03-01T10:45:00.902Z,26.80
2018-03-01T10:46:04.194Z,26.60
2018-03-01T10:47:06.712Z,26.60
2018-03-01T10:48:09.212Z,26.50
2018-03-01T10:49:12.503Z,26.50
2018-03-01T10:50:15.781Z,26.60
2018-03-01T10:51:19.044Z,26.50
2018-03-01T10:52:21.594Z,26.50
2018-03-01T10:53:24.097Z,26.50
2018-03-01T10:54:27.403Z,26.50
2018-03-01T10:55:29.943Z,26.50
2018-03-01T10:56:33.238Z,26.40
2018-03-01T10:57:36.538Z,26.30
2018-03-01T10:58:39.050Z,26.30
2018-03-01T10:59:41.566Z,26.30
2018-03-01T11:00:44.086Z,26.30
2018-03-01T11:01:52.634Z,26.30
2018-03-01T11:02:55.129Z,26.20
2018-03-01T11:03:57.703Z,26.10
2018-03-01T11:05:00.531Z,26.00
2018-03-01T11:06:03.806Z,25.90
2018-03-01T11:07:07.071Z,25.90
2018-03-01T11:08:12.575Z,25.90
2018-03-01T11:09:15.895Z,25.80
2018-03-01T11:10:21.525Z,25.90
2018-03-01T11:11:24.035Z,25.90
2018-03-01T11:12:26.595Z,25.80
2018-03-01T11:13:29.879Z,25.70
2018-03-01T11:14:33.589Z,25.80
2018-03-01T11:15:36.118Z,25.70
2018-03-01T11:16:41.321Z,25.70
2018-03-01T11:17:43.839Z,26.10
2018-03-01T11:18:48.781Z,25.70
2018-03-01T11:19:51.348Z,25.60
2018-03-01T11:20:53.869Z,25.50
2018-03-01T11:21:57.170Z,25.30
2018-03-01T11:22:59.675Z,25.30
2018-03-01T11:24:02.174Z,25.40
2018-03-01T11:25:04.837Z,25.40
2018-03-01T11:27:16.627Z,25.40
2018-03-01T11:28:20.756Z,25.40
2018-03-01T11:29:23.268Z,25.40
2018-03-01T11:30:25.800Z,25.30
2018-03-01T11:31:28.323Z,25.30
2018-03-01T11:32:30.832Z,25.30
2018-03-01T11:33:33.331Z,25.50
2018-03-01T11:34:35.850Z,25.50
2018-03-01T11:35:38.358Z,25.50
2018-03-01T11:36:40.894Z,25.50
2018-03-01T11:37:43.422Z,25.40
2018-03-01T11:38:46.834Z,25.30
2018-03-01T11:39:50.099Z,25.20
2018-03-01T11:40:53.361Z,25.60
2018-03-01T11:41:55.920Z,25.20
2018-03-01T11:42:58.416Z,25.20
2018-03-01T11:44:01.678Z,25.20
2018-03-01T11:45:04.182Z,25.20
2018-03-01T11:46:06.690Z,25.30
2018-03-01T11:47:09.507Z,25.30
2018-03-01T11:48:12.774Z,25.20
2018-03-01T11:49:15.286Z,25.20
2018-03-01T11:50:17.792Z,25.60
2018-03-01T11:51:20.297Z,25.20
2018-03-01T11:52:22.855Z,25.20
2018-03-01T11:53:26.129Z,25.20
2018-03-01T11:54:29.398Z,25.20
2018-03-01T11:55:32.002Z,25.10
2018-03-01T11:56:34.506Z,25.10
2018-03-01T11:57:37.046Z,25.20
2018-03-01T11:58:39.615Z,25.20
2018-03-01T11:59:42.110Z,25.20
2018-03-01T12:00:44.612Z,25.20
2018-03-01T12:01:47.891Z,25.40
2018-03-01T12:02:51.174Z,25.30
2018-03-01T12:03:54.451Z,25.30
2018-03-01T12:04:56.994Z,25.30
2018-03-01T12:05:59.570Z,25.40
2018-03-01T12:07:02.079Z,25.50
2018-03-01T12:08:04.602Z,25.40
2018-03-01T12:09:07.119Z,25.40
2018-03-01T12:10:09.618Z,25.50
2018-03-01T12:11:12.112Z,25.30
2018-03-01T12:12:14.625Z,25.30
2018-03-01T12:13:17.177Z,25.20
2018-03-01T12:14:19.691Z,25.20
2018-03-01T12:15:22.182Z,25.10
2018-03-01T12:16:25.450Z,25.10
2018-03-01T12:17:27.970Z,25.00
2018-03-01T12:18:30.516Z,25.00
2018-03-01T12:19:33.027Z,25.10
2018-03-01T12:20:35.537Z,25.10
2018-03-01T12:21:38.812Z,25.10
2018-03-01T12:22:41.323Z,25.10
2018-03-01T12:23:44.165Z,25.20
2018-03-01T12:24:46.682Z,25.20
2018-03-01T12:25:49.194Z,25.20
2018-03-01T12:26:52.459Z,25.10
2018-03-01T12:27:55.724Z,24.90
2018-03-01T12:28:58.252Z,24.90
2018-03-01T12:30:00.808Z,24.80
2018-03-01T12:31:03.336Z,24.80
2018-03-01T12:32:06.626Z,24.60
2018-03-01T12:33:09.915Z,24.70
2018-03-01T12:34:13.321Z,24.80
2018-03-01T12:35:15.826Z,24.80
2018-03-01T12:36:18.366Z,24.80
2018-03-01T12:37:20.884Z,24.80
2018-03-01T12:38:24.147Z,25.30
2018-03-01T12:39:26.758Z,24.90
2018-03-01T12:40:29.265Z,24.90
2018-03-01T12:41:31.795Z,24.90
2018-03-01T12:42:34.290Z,24.90
2018-03-01T12:43:36.827Z,24.80
2018-03-01T12:44:39.370Z,24.80
2018-03-01T12:45:42.642Z,24.70
2018-03-01T12:46:45.924Z,24.70
2018-03-01T12:47:48.441Z,24.70
2018-03-01T12:48:50.952Z,25.20
2018-03-01T12:49:53.522Z,24.70
2018-03-01T12:50:56.043Z,24.80
2018-03-01T12:51:58.551Z,24.80
2018-03-01T12:53:01.096Z,24.80
2018-03-01T12:54:03.607Z,24.70
2018-03-01T12:55:06.840Z,25.00
2018-03-01T12:56:09.353Z,25.10
2018-03-01T12:57:12.624Z,25.10
2018-03-01T12:58:15.923Z,25.20
2018-03-01T12:59:19.191Z,25.20
2018-03-01T13:00:22.473Z,25.10
2018-03-01T13:01:24.990Z,25.00
2018-03-01T13:02:27.492Z,24.90
2018-03-01T13:03:29.991Z,24.80
2018-03-01T13:06:08.306Z,25.00
2018-03-01T13:07:10.820Z,24.90
2018-03-01T13:08:13.315Z,24.90
2018-03-01T13:09:16.582Z,24.80
2018-03-01T13:10:19.096Z,24.80
2018-03-01T13:11:21.634Z,24.80
2018-03-01T13:12:24.902Z,24.90
2018-03-01T13:13:27.403Z,24.90
2018-03-01T13:14:29.916Z,24.90
2018-03-01T13:15:32.434Z,24.90
2018-03-01T13:16:34.964Z,25.00
2018-03-01T13:17:38.282Z,24.50
2018-03-01T13:18:40.790Z,24.80
2018-03-01T13:19:43.300Z,24.70
2018-03-01T13:20:46.563Z,24.60
2018-03-01T13:21:49.868Z,24.70
2018-03-01T13:22:53.175Z,24.70
2018-03-01T13:23:55.682Z,24.70
2018-03-01T13:24:58.185Z,24.70
2018-03-01T13:26:00.685Z,24.70
2018-03-01T13:27:03.227Z,24.60
2018-03-01T13:28:05.729Z,24.60
2018-03-01T13:29:08.226Z,24.70
2018-03-01T13:30:11.486Z,24.60
2018-03-01T13:31:16.949Z,24.60